Time;durP1;ratioP1;P1;durP2;ratioP2;P2;SDS_P1;SDS_P2;PMS_P1;PMS_P2;Temp;Humidity;BMP_temperature;BMP_pressure;BME280_temperature;BME280_humidity;BME280_pressure;Samples;Min_cycle;Max_cycle;Signal;HPM_P1;HPM_P2
2022/06/16 00:02:12;;;;;;;2.87;1.60;;;;;;;;;;5038006;28;20461;-81
2022/06/16 00:04:39;;;;;;;1.60;1.40;;;;;;;;;;5039938;28;20909;-81
2022/06/16 00:07:06;;;;;;;1.70;1.23;;;;;;;;;;5045078;28;20462;-81
2022/06/16 00:09:33;;;;;;;2.37;1.43;;;;;;;;;;5051307;28;20907;-81
2022/06/16 00:12:01;;;;;;;4.70;1.70;;;;;;;;;;5049247;28;20491;-81
2022/06/16 00:14:29;;;;;;;1.87;1.43;;;;;;;;;;5045168;28;20464;-82
2022/06/16 00:16:58;;;;;;;1.80;1.30;;;;;;;;;;5041118;28;20472;-80
2022/06/16 00:19:25;;;;;;;4.70;1.50;;;;;;;;;;5045144;28;20507;-81
2022/06/16 00:21:52;;;;;;;1.57;1.47;;;;;;;;;;5036277;28;20461;-81
2022/06/16 00:24:20;;;;;;;2.27;1.60;;;;;;;;;;5049685;28;20472;-81
2022/06/16 00:26:47;;;;;;;2.80;1.50;;;;;;;;;;5044631;28;20476;-81
2022/06/16 00:29:14;;;;;;;1.97;1.50;;;;;;;;;;5051409;28;20476;-81
2022/06/16 00:31:41;;;;;;;2.67;1.83;;;;;;;;;;5039734;28;20515;-82
2022/06/16 00:34:10;;;;;;;3.73;1.80;;;;;;;;;;5043507;28;20458;-80
2022/06/16 00:36:37;;;;;;;1.80;1.70;;;;;;;;;;5045773;28;20535;-79
2022/06/16 00:39:05;;;;;;;2.45;1.58;;;;;;;;;;5034809;28;20454;-80
2022/06/16 00:41:32;;;;;;;1.40;1.20;;;;;;;;;;5046132;28;20218;-79
2022/06/16 00:44:00;;;;;;;2.30;1.53;;;;;;;;;;5042083;28;20492;-79
2022/06/16 00:46:29;;;;;;;1.70;1.60;;;;;;;;;;5047143;28;20950;-79
2022/06/16 00:48:57;;;;;;;2.10;1.90;;;;;;;;;;5054601;28;20209;-79
2022/06/16 00:51:28;;;;;;;1.58;1.48;;;;;;;;;;5049764;28;20601;-80
2022/06/16 00:53:58;;;;;;;2.38;1.73;;;;;;;;;;5053197;28;20573;-80
2022/06/16 00:56:25;;;;;;;1.35;1.25;;;;;;;;;;5047127;28;20243;-80
2022/06/16 00:58:55;;;;;;;2.40;2.00;;;;;;;;;;5051549;28;20236;-82
2022/06/16 01:01:22;;;;;;;1.85;1.55;;;;;;;;;;5044566;28;20657;-82
2022/06/16 01:06:36;;;;;;;2.30;1.60;;;;;;;;;;5049679;28;20249;-79
2022/06/16 01:09:05;;;;;;;2.35;1.27;;;;;;;;;;5044769;28;20205;-79
2022/06/16 01:14:37;;;;;;;2.40;1.70;;;;;;;;;;5043360;28;20199;-79
2022/06/16 01:17:08;;;;;;;2.13;1.73;;;;;;;;;;5046065;28;21040;-79
2022/06/16 01:19:45;;;;;;;2.00;1.67;;;;;;;;;;5045055;28;20442;-82
2022/06/16 01:22:18;;;;;;;2.22;2.13;;;;;;;;;;5033656;28;20198;-83
2022/06/16 01:24:53;;;;;;;2.28;1.92;;;;;;;;;;5045816;28;20295;-83
2022/06/16 01:27:32;;;;;;;1.42;1.30;;;;;;;;;;5048426;28;20189;-82
2022/06/16 01:30:03;;;;;;;2.78;1.60;;;;;;;;;;5035683;28;20645;-82
2022/06/16 01:32:34;;;;;;;1.90;1.80;;;;;;;;;;5048502;28;20194;-81
2022/06/16 01:35:06;;;;;;;1.73;1.60;;;;;;;;;;5042069;28;20203;-80
2022/06/16 01:37:37;;;;;;;2.38;2.03;;;;;;;;;;5046121;28;20450;-81
2022/06/16 01:40:06;;;;;;;1.50;1.20;;;;;;;;;;5034093;28;20214;-83
2022/06/16 01:42:37;;;;;;;1.80;1.60;;;;;;;;;;5033472;28;20732;-83
2022/06/16 01:45:11;;;;;;;2.00;1.60;;;;;;;;;;5042441;28;20229;-84
2022/06/16 01:47:38;;;;;;;3.00;2.08;;;;;;;;;;5050325;28;20727;-83
2022/06/16 01:50:07;;;;;;;2.22;1.80;;;;;;;;;;5046683;28;20197;-82
2022/06/16 01:52:37;;;;;;;1.90;1.55;;;;;;;;;;5050618;28;20208;-83
2022/06/16 01:55:07;;;;;;;3.00;1.45;;;;;;;;;;5038524;28;20252;-83
2022/06/16 01:57:37;;;;;;;2.22;1.40;;;;;;;;;;5037921;28;20205;-83
2022/06/16 02:00:08;;;;;;;2.90;1.80;;;;;;;;;;5039121;28;20197;-84
2022/06/16 02:02:37;;;;;;;2.78;2.03;;;;;;;;;;5035991;28;20293;-83
2022/06/16 02:05:07;;;;;;;2.88;2.00;;;;;;;;;;5036953;28;20219;-81
2022/06/16 02:07:36;;;;;;;1.70;1.42;;;;;;;;;;5037632;28;20208;-80
2022/06/16 02:10:06;;;;;;;1.73;1.63;;;;;;;;;;5043886;28;20724;-80
2022/06/16 02:15:22;;;;;;;1.88;1.30;;;;;;;;;;5035932;28;20222;-80
2022/06/16 02:17:51;;;;;;;2.63;1.75;;;;;;;;;;5053276;28;20633;-80
2022/06/16 02:20:18;;;;;;;2.00;1.80;;;;;;;;;;5037880;28;20205;-80
2022/06/16 02:22:45;;;;;;;3.47;1.67;;;;;;;;;;5047934;28;20200;-82
2022/06/16 02:25:12;;;;;;;2.58;1.80;;;;;;;;;;5045416;28;20708;-79
2022/06/16 02:27:39;;;;;;;3.30;1.90;;;;;;;;;;5042635;28;20210;-79
2022/06/16 02:30:07;;;;;;;2.58;2.00;;;;;;;;;;5039038;28;20204;-82
2022/06/16 02:32:40;;;;;;;2.33;2.10;;;;;;;;;;5050265;28;20251;-80
2022/06/16 02:35:17;;;;;;;2.67;1.77;;;;;;;;;;5039522;28;20205;-80
2022/06/16 02:37:50;;;;;;;1.90;1.70;;;;;;;;;;5049629;28;20229;-81
2022/06/16 02:40:25;;;;;;;2.05;1.85;;;;;;;;;;5052623;28;20206;-80
2022/06/16 02:42:58;;;;;;;2.50;1.88;;;;;;;;;;5048526;28;20222;-80
2022/06/16 02:45:29;;;;;;;5.20;1.90;;;;;;;;;;5044924;28;20222;-80
2022/06/16 02:48:00;;;;;;;4.30;1.45;;;;;;;;;;5045962;28;20263;-79
2022/06/16 02:50:37;;;;;;;2.03;1.83;;;;;;;;;;5038924;28;20564;-84
2022/06/16 02:53:10;;;;;;;1.85;1.70;;;;;;;;;;5036242;28;20201;-82
2022/06/16 02:55:38;;;;;;;1.60;1.45;;;;;;;;;;5049329;28;20603;-82
2022/06/16 02:58:05;;;;;;;1.92;1.67;;;;;;;;;;5044012;28;20204;-81
2022/06/16 03:00:35;;;;;;;2.20;1.75;;;;;;;;;;5042879;28;20203;-81
2022/06/16 03:03:16;;;;;;;2.17;1.63;;;;;;;;;;5039294;28;20196;-81
2022/06/16 03:05:44;;;;;;;1.90;1.40;;;;;;;;;;5047421;28;20194;-81
2022/06/16 03:08:11;;;;;;;1.98;1.60;;;;;;;;;;5044549;28;20207;-82
2022/06/16 03:10:54;;;;;;;3.38;1.95;;;;;;;;;;5043733;28;20661;-82
2022/06/16 03:13:22;;;;;;;2.00;1.80;;;;;;;;;;5046266;28;20199;-82
2022/06/16 03:15:50;;;;;;;1.50;1.40;;;;;;;;;;5039758;28;20206;-83
2022/06/16 03:18:17;;;;;;;3.10;2.80;;;;;;;;;;5044789;28;20223;-82
2022/06/16 03:20:46;;;;;;;2.78;1.92;;;;;;;;;;5040845;28;20199;-81
2022/06/16 03:23:13;;;;;;;2.20;2.00;;;;;;;;;;5038221;28;20203;-81
2022/06/16 03:25:41;;;;;;;2.50;1.60;;;;;;;;;;5044003;28;20224;-82
2022/06/16 03:28:08;;;;;;;2.05;1.85;;;;;;;;;;5045891;28;20224;-82
2022/06/16 03:30:36;;;;;;;2.47;1.73;;;;;;;;;;5042931;28;20323;-81
2022/06/16 03:33:03;;;;;;;5.07;1.90;;;;;;;;;;5046971;28;20606;-81
2022/06/16 03:35:31;;;;;;;2.42;1.95;;;;;;;;;;5041666;28;20593;-81
2022/06/16 03:38:00;;;;;;;2.15;1.30;;;;;;;;;;5046410;28;20193;-82
2022/06/16 03:40:27;;;;;;;2.45;1.85;;;;;;;;;;5040691;28;20241;-82
2022/06/16 03:42:54;;;;;;;2.00;1.70;;;;;;;;;;5044409;28;20220;-81
2022/06/16 03:45:21;;;;;;;2.10;1.65;;;;;;;;;;5043979;28;20285;-81
2022/06/16 03:47:49;;;;;;;2.92;1.58;;;;;;;;;;5046265;28;20206;-81
2022/06/16 03:50:17;;;;;;;4.00;1.70;;;;;;;;;;5031367;28;20615;-82
2022/06/16 03:52:44;;;;;;;3.20;1.98;;;;;;;;;;5046884;28;20611;-81
2022/06/16 03:55:13;;;;;;;2.80;1.75;;;;;;;;;;5043113;28;20196;-82
2022/06/16 03:57:40;;;;;;;3.67;1.88;;;;;;;;;;5036571;28;20199;-82
2022/06/16 04:00:08;;;;;;;3.00;1.83;;;;;;;;;;5044784;28;20196;-82
2022/06/16 04:02:35;;;;;;;2.92;2.00;;;;;;;;;;5045246;28;20237;-82
2022/06/16 04:05:02;;;;;;;2.10;1.90;;;;;;;;;;5037809;28;20250;-82
2022/06/16 04:07:29;;;;;;;2.30;1.90;;;;;;;;;;5046414;28;20398;-82
2022/06/16 04:09:56;;;;;;;3.78;1.40;;;;;;;;;;5035240;28;20544;-82
2022/06/16 04:12:25;;;;;;;1.60;1.50;;;;;;;;;;5039526;28;20214;-82
2022/06/16 04:14:52;;;;;;;2.97;1.73;;;;;;;;;;5038919;28;20666;-82
2022/06/16 04:17:19;;;;;;;2.30;1.73;;;;;;;;;;5044083;28;20191;-83
2022/06/16 04:22:30;;;;;;;1.88;1.77;;;;;;;;;;5044023;28;20253;-83
2022/06/16 04:24:58;;;;;;;1.80;1.60;;;;;;;;;;5048871;28;20645;-82
2022/06/16 04:27:26;;;;;;;2.00;1.50;;;;;;;;;;5043678;28;20701;-83
2022/06/16 04:29:53;;;;;;;2.00;1.80;;;;;;;;;;5044371;28;20196;-82
2022/06/16 04:32:20;;;;;;;1.70;1.60;;;;;;;;;;5044865;28;20198;-83
2022/06/16 04:34:48;;;;;;;1.95;1.58;;;;;;;;;;5039475;28;20210;-82
2022/06/16 04:37:15;;;;;;;2.40;1.92;;;;;;;;;;5042406;28;20264;-82
2022/06/16 04:39:42;;;;;;;1.88;1.50;;;;;;;;;;5050953;28;20558;-81
2022/06/16 04:42:09;;;;;;;2.75;1.40;;;;;;;;;;5044454;28;20211;-82
2022/06/16 04:44:39;;;;;;;1.98;1.70;;;;;;;;;;5043600;28;20216;-82
2022/06/16 04:47:07;;;;;;;2.30;1.75;;;;;;;;;;5041266;28;20200;-82
2022/06/16 04:49:34;;;;;;;1.92;1.73;;;;;;;;;;5039650;28;20226;-83
2022/06/16 04:52:01;;;;;;;2.10;1.50;;;;;;;;;;5043661;28;20199;-82
2022/06/16 04:54:28;;;;;;;2.05;1.60;;;;;;;;;;5040046;28;20203;-83
2022/06/16 04:56:55;;;;;;;3.67;1.48;;;;;;;;;;5045824;28;20199;-83
2022/06/16 04:59:23;;;;;;;2.05;1.52;;;;;;;;;;5040209;28;20215;-82
2022/06/16 05:01:51;;;;;;;2.05;1.77;;;;;;;;;;5045364;28;20229;-82
2022/06/16 05:04:18;;;;;;;2.25;1.75;;;;;;;;;;5042724;28;20219;-82
2022/06/16 05:06:45;;;;;;;2.35;1.70;;;;;;;;;;5051703;28;20681;-83
2022/06/16 05:09:12;;;;;;;1.77;1.58;;;;;;;;;;5054347;28;20203;-82
2022/06/16 05:11:39;;;;;;;2.45;1.55;;;;;;;;;;5043118;28;20195;-82
2022/06/16 05:14:06;;;;;;;5.20;1.70;;;;;;;;;;5039089;28;20536;-81
2022/06/16 05:16:33;;;;;;;2.05;1.50;;;;;;;;;;5041512;28;20191;-81
2022/06/16 05:19:02;;;;;;;2.15;1.40;;;;;;;;;;5051376;28;20195;-81
2022/06/16 05:21:29;;;;;;;1.25;1.15;;;;;;;;;;5053068;28;20207;-81
2022/06/16 05:23:56;;;;;;;2.47;1.27;;;;;;;;;;5044766;28;20204;-81
2022/06/16 05:26:23;;;;;;;2.40;1.70;;;;;;;;;;5048701;28;20222;-82
2022/06/16 05:28:50;;;;;;;3.10;1.73;;;;;;;;;;5048934;28;20655;-82
2022/06/16 05:31:17;;;;;;;1.70;1.60;;;;;;;;;;5034587;28;20202;-82
2022/06/16 05:33:44;;;;;;;2.28;1.45;;;;;;;;;;5034727;28;20204;-81
2022/06/16 05:36:14;;;;;;;1.80;1.40;;;;;;;;;;5045513;28;20395;-82
2022/06/16 05:38:41;;;;;;;2.28;1.30;;;;;;;;;;5034142;28;20207;-79
2022/06/16 05:41:10;;;;;;;3.42;1.80;;;;;;;;;;5033610;28;20200;-80
2022/06/16 05:43:37;;;;;;;3.30;1.67;;;;;;;;;;5037907;28;20291;-80
2022/06/16 05:46:04;;;;;;;1.30;1.20;;;;;;;;;;5043707;28;20224;-80
2022/06/16 05:48:32;;;;;;;2.25;1.40;;;;;;;;;;5041365;28;20204;-79
2022/06/16 05:51:05;;;;;;;1.70;1.55;;;;;;;;;;5043795;28;20680;-82
2022/06/16 05:53:33;;;;;;;2.13;1.38;;;;;;;;;;5043494;28;20598;-81
2022/06/16 05:56:00;;;;;;;3.95;1.60;;;;;;;;;;5049200;28;20568;-81
2022/06/16 05:58:28;;;;;;;1.40;1.25;;;;;;;;;;5044999;28;20875;-81
2022/06/16 06:00:55;;;;;;;2.10;1.52;;;;;;;;;;5048827;28;20206;-82
2022/06/16 06:03:22;;;;;;;1.60;1.13;;;;;;;;;;5050238;28;20620;-81
2022/06/16 06:05:49;;;;;;;3.43;1.50;;;;;;;;;;5044073;28;20578;-82
2022/06/16 06:16:36;;;;;;;2.13;1.57;;;;;;;;;;5045583;28;20513;-81
2022/06/16 06:19:23;;;;;;;4.30;1.10;;;;;;;;;;5039094;28;20442;-83
2022/06/16 06:22:00;;;;;;;1.63;1.40;;;;;;;;;;5033127;28;20458;-85
2022/06/16 06:24:28;;;;;;;1.40;1.30;;;;;;;;;;5043455;28;20464;-82
2022/06/16 06:26:57;;;;;;;2.40;1.27;;;;;;;;;;5045073;28;20468;-82
2022/06/16 06:29:24;;;;;;;1.77;1.30;;;;;;;;;;5045176;28;20905;-82
2022/06/16 06:31:51;;;;;;;3.23;1.10;;;;;;;;;;5045172;28;20949;-83
2022/06/16 06:34:18;;;;;;;1.80;1.20;;;;;;;;;;5034026;28;21027;-82
2022/06/16 06:36:47;;;;;;;1.30;1.00;;;;;;;;;;5042255;28;20458;-81
2022/06/16 06:39:14;;;;;;;2.10;1.33;;;;;;;;;;5051199;28;20433;-82
2022/06/16 06:41:41;;;;;;;1.50;1.17;;;;;;;;;;5037049;28;20490;-80
2022/06/16 06:44:10;;;;;;;2.47;1.40;;;;;;;;;;5045639;28;20948;-83
2022/06/16 06:46:37;;;;;;;1.70;1.20;;;;;;;;;;5040013;28;20571;-79
2022/06/16 06:49:04;;;;;;;1.70;1.13;;;;;;;;;;5052148;28;20450;-79
2022/06/16 06:51:32;;;;;;;2.20;1.10;;;;;;;;;;5045946;28;20460;-81
2022/06/16 06:53:59;;;;;;;2.07;1.20;;;;;;;;;;5046094;28;20500;-80
2022/06/16 06:56:27;;;;;;;1.90;1.03;;;;;;;;;;5044008;28;20457;-80
2022/06/16 06:58:54;;;;;;;1.87;1.20;;;;;;;;;;5044962;28;20915;-81
2022/06/16 07:01:22;;;;;;;1.43;0.90;;;;;;;;;;5034497;28;20457;-80
2022/06/16 07:03:50;;;;;;;1.83;1.17;;;;;;;;;;5050639;28;20785;-81
2022/06/16 07:06:18;;;;;;;2.30;1.50;;;;;;;;;;5044949;28;20481;-81
2022/06/16 07:08:45;;;;;;;1.80;1.00;;;;;;;;;;5046830;28;20728;-82
2022/06/16 07:11:13;;;;;;;1.90;1.23;;;;;;;;;;5046909;28;20433;-81
2022/06/16 07:13:40;;;;;;;2.13;1.20;;;;;;;;;;5038403;28;21333;-80
2022/06/16 07:16:07;;;;;;;2.33;1.13;;;;;;;;;;5043347;28;20540;-81
2022/06/16 07:18:36;;;;;;;2.57;1.30;;;;;;;;;;5048977;28;20456;-80
2022/06/16 07:21:03;;;;;;;2.00;1.17;;;;;;;;;;5043378;28;20458;-81
2022/06/16 07:23:31;;;;;;;4.87;1.30;;;;;;;;;;5049015;28;20963;-80
2022/06/16 07:25:58;;;;;;;2.97;1.03;;;;;;;;;;5043728;28;21004;-80
2022/06/16 07:28:25;;;;;;;1.50;1.00;;;;;;;;;;5047447;28;20840;-82
2022/06/16 07:30:52;;;;;;;3.17;1.30;;;;;;;;;;5038147;28;20963;-81
2022/06/16 07:33:19;;;;;;;1.30;1.17;;;;;;;;;;5045640;28;20461;-81
2022/06/16 07:35:47;;;;;;;1.40;1.10;;;;;;;;;;5034930;28;20965;-81
2022/06/16 07:38:14;;;;;;;1.43;0.90;;;;;;;;;;5048016;28;20456;-81
2022/06/16 07:40:41;;;;;;;1.30;1.00;;;;;;;;;;5039166;28;20620;-81
2022/06/16 07:43:09;;;;;;;1.93;0.93;;;;;;;;;;5030737;28;20473;-80
2022/06/16 07:45:38;;;;;;;2.27;1.20;;;;;;;;;;5036467;28;20833;-81
2022/06/16 07:48:06;;;;;;;2.00;1.13;;;;;;;;;;5041466;28;20806;-80
2022/06/16 07:50:36;;;;;;;1.90;1.07;;;;;;;;;;5050887;28;20951;-80
2022/06/16 07:53:04;;;;;;;1.80;1.00;;;;;;;;;;5041891;28;20519;-80
2022/06/16 07:55:32;;;;;;;2.03;1.10;;;;;;;;;;5040990;28;20453;-80
2022/06/16 07:57:59;;;;;;;1.87;1.00;;;;;;;;;;5033505;28;20450;-81
2022/06/16 08:00:28;;;;;;;10.33;1.30;;;;;;;;;;5039052;28;20974;-80
2022/06/16 08:02:56;;;;;;;1.57;1.10;;;;;;;;;;5047302;28;20505;-81
2022/06/16 08:05:23;;;;;;;1.90;0.80;;;;;;;;;;5047745;28;20487;-80
2022/06/16 08:07:50;;;;;;;1.73;0.80;;;;;;;;;;5040220;28;20465;-81
2022/06/16 08:10:20;;;;;;;1.60;0.93;;;;;;;;;;5039537;28;20961;-80
2022/06/16 08:12:48;;;;;;;3.00;1.33;;;;;;;;;;5037581;28;20496;-81
2022/06/16 08:15:15;;;;;;;1.73;1.20;;;;;;;;;;5034713;28;20469;-81
2022/06/16 08:17:44;;;;;;;1.77;0.93;;;;;;;;;;5036234;28;20518;-80
2022/06/16 08:20:11;;;;;;;1.57;0.90;;;;;;;;;;5043392;28;20458;-80
2022/06/16 08:22:38;;;;;;;3.77;1.63;;;;;;;;;;5042563;28;20463;-81
2022/06/16 08:25:07;;;;;;;1.80;1.00;;;;;;;;;;5032459;28;20495;-81
2022/06/16 08:27:38;;;;;;;1.80;0.90;;;;;;;;;;5035372;28;20470;-82
2022/06/16 08:30:08;;;;;;;1.53;1.00;;;;;;;;;;5037771;28;20465;-80
2022/06/16 08:32:35;;;;;;;1.90;0.90;;;;;;;;;;5038446;28;20458;-81
2022/06/16 08:35:02;;;;;;;3.00;0.90;;;;;;;;;;5038002;28;20465;-81
2022/06/16 08:37:29;;;;;;;2.13;1.00;;;;;;;;;;5036207;28;20842;-79
2022/06/16 08:39:56;;;;;;;3.83;1.03;;;;;;;;;;5038179;28;20456;-80
2022/06/16 08:42:26;;;;;;;1.93;1.00;;;;;;;;;;5046420;28;20477;-79
2022/06/16 08:44:58;;;;;;;1.17;0.83;;;;;;;;;;5040363;28;20445;-79
2022/06/16 08:47:29;;;;;;;1.00;0.80;;;;;;;;;;5041715;28;20895;-80
2022/06/16 08:50:01;;;;;;;0.93;0.70;;;;;;;;;;5036405;28;20466;-80
2022/06/16 08:52:33;;;;;;;1.23;0.97;;;;;;;;;;5035551;28;20954;-80
2022/06/16 08:55:06;;;;;;;1.93;0.90;;;;;;;;;;5050896;28;20963;-80
2022/06/16 08:57:44;;;;;;;1.10;0.80;;;;;;;;;;5049608;28;20461;-79
2022/06/16 09:00:15;;;;;;;2.37;0.90;;;;;;;;;;5037681;28;20992;-79
2022/06/16 09:02:46;;;;;;;2.30;0.93;;;;;;;;;;5049578;28;20969;-77
2022/06/16 09:05:22;;;;;;;1.10;0.77;;;;;;;;;;5045307;28;20493;-78
2022/06/16 09:07:56;;;;;;;1.10;0.80;;;;;;;;;;5042101;28;21021;-78
2022/06/16 09:10:28;;;;;;;1.30;0.90;;;;;;;;;;5043295;28;20587;-78
2022/06/16 09:13:11;;;;;;;1.70;0.80;;;;;;;;;;5044242;28;20465;-77
2022/06/16 09:15:43;;;;;;;1.30;0.63;;;;;;;;;;5042485;28;20458;-78
2022/06/16 09:18:22;;;;;;;1.20;0.90;;;;;;;;;;5045282;28;20542;-78
2022/06/16 09:20:53;;;;;;;1.77;0.90;;;;;;;;;;5042363;28;20454;-77
2022/06/16 09:23:27;;;;;;;2.13;0.87;;;;;;;;;;5036613;28;20939;-76
2022/06/16 09:26:01;;;;;;;1.60;0.83;;;;;;;;;;5041526;28;20845;-77
2022/06/16 09:28:31;;;;;;;1.50;1.00;;;;;;;;;;5037582;28;20473;-77
2022/06/16 09:31:02;;;;;;;1.07;0.70;;;;;;;;;;5031123;28;20546;-78
2022/06/16 09:33:31;;;;;;;1.47;0.80;;;;;;;;;;5028458;28;20468;-78
2022/06/16 09:36:00;;;;;;;1.87;1.00;;;;;;;;;;5031563;28;20470;-77
2022/06/16 09:38:29;;;;;;;1.07;0.83;;;;;;;;;;5048070;28;20491;-78
2022/06/16 09:40:59;;;;;;;2.20;0.80;;;;;;;;;;5032129;28;20529;-78
2022/06/16 09:43:29;;;;;;;2.47;0.70;;;;;;;;;;5039404;28;20498;-77
2022/06/16 09:45:59;;;;;;;1.20;0.80;;;;;;;;;;5048100;28;20979;-77
2022/06/16 09:48:30;;;;;;;1.00;0.70;;;;;;;;;;5040371;28;20457;-78
2022/06/16 09:51:00;;;;;;;1.10;0.80;;;;;;;;;;5036732;28;20469;-77
2022/06/16 09:53:31;;;;;;;0.97;0.70;;;;;;;;;;5031689;28;20467;-77
2022/06/16 09:56:01;;;;;;;0.97;0.80;;;;;;;;;;5030523;28;20459;-77
2022/06/16 09:58:32;;;;;;;0.97;0.70;;;;;;;;;;5030602;28;20461;-78
2022/06/16 10:01:00;;;;;;;1.40;0.90;;;;;;;;;;5039569;28;20871;-77
2022/06/16 10:03:31;;;;;;;0.90;0.70;;;;;;;;;;5048785;28;20519;-77
2022/06/16 10:06:07;;;;;;;1.43;0.70;;;;;;;;;;5045461;28;20929;-78
2022/06/16 10:08:38;;;;;;;1.00;0.70;;;;;;;;;;5057856;28;20480;-78
2022/06/16 10:11:11;;;;;;;1.10;0.70;;;;;;;;;;5036693;28;20523;-78
2022/06/16 10:13:39;;;;;;;1.10;0.70;;;;;;;;;;5039726;28;20469;-77
2022/06/16 10:16:10;;;;;;;0.90;0.70;;;;;;;;;;5047494;28;20457;-77
2022/06/16 10:18:39;;;;;;;1.23;0.90;;;;;;;;;;5038927;28;20450;-77
2022/06/16 10:21:07;;;;;;;0.90;0.60;;;;;;;;;;5028745;28;20458;-79
2022/06/16 10:23:37;;;;;;;1.10;0.80;;;;;;;;;;5028892;28;20470;-77
2022/06/16 10:26:06;;;;;;;1.20;0.70;;;;;;;;;;5036499;28;20480;-78
2022/06/16 10:28:34;;;;;;;1.10;0.70;;;;;;;;;;5039177;28;20468;-77
2022/06/16 10:31:02;;;;;;;1.10;0.80;;;;;;;;;;5043763;28;20461;-78
2022/06/16 10:33:30;;;;;;;1.10;0.80;;;;;;;;;;5036208;28;20466;-78
2022/06/16 10:36:08;;;;;;;2.03;0.80;;;;;;;;;;5038672;28;20480;-77
2022/06/16 10:38:35;;;;;;;2.40;0.80;;;;;;;;;;5044147;28;20903;-77
2022/06/16 10:41:04;;;;;;;0.90;0.70;;;;;;;;;;5037843;28;20462;-77
2022/06/16 10:43:36;;;;;;;1.57;1.07;;;;;;;;;;5049251;28;20465;-77
2022/06/16 10:46:08;;;;;;;1.27;0.90;;;;;;;;;;5038709;28;20564;-77
2022/06/16 10:48:37;;;;;;;1.33;1.00;;;;;;;;;;5037365;28;20442;-77
2022/06/16 10:51:09;;;;;;;0.90;0.70;;;;;;;;;;5035430;28;20465;-77
2022/06/16 10:53:38;;;;;;;1.33;0.70;;;;;;;;;;5038910;28;20498;-76
2022/06/16 10:56:10;;;;;;;1.40;0.80;;;;;;;;;;5045107;28;20838;-79
2022/06/16 10:58:44;;;;;;;1.00;0.70;;;;;;;;;;5050047;28;20450;-77
2022/06/16 11:01:16;;;;;;;1.00;0.73;;;;;;;;;;5032968;28;20516;-77
2022/06/16 11:03:44;;;;;;;1.77;0.83;;;;;;;;;;5037873;28;20470;-77
2022/06/16 11:06:15;;;;;;;1.13;0.70;;;;;;;;;;5045939;28;20481;-76
2022/06/16 11:08:44;;;;;;;1.20;0.80;;;;;;;;;;5040693;28;20458;-77
2022/06/16 11:11:11;;;;;;;1.30;1.00;;;;;;;;;;5038137;28;20466;-78
2022/06/16 11:13:40;;;;;;;1.40;0.80;;;;;;;;;;5041294;28;20985;-77
2022/06/16 11:16:08;;;;;;;1.10;0.73;;;;;;;;;;5037069;28;20465;-77
2022/06/16 11:18:37;;;;;;;1.10;0.90;;;;;;;;;;5049400;28;20886;-78
2022/06/16 11:21:13;;;;;;;1.97;0.90;;;;;;;;;;5039610;28;20462;-77
2022/06/16 11:23:44;;;;;;;1.00;0.80;;;;;;;;;;5038309;28;20469;-78
2022/06/16 11:26:19;;;;;;;1.50;0.90;;;;;;;;;;5037793;28;20481;-78
2022/06/16 11:28:48;;;;;;;1.43;0.80;;;;;;;;;;5046333;28;20484;-77
2022/06/16 11:31:18;;;;;;;1.83;0.80;;;;;;;;;;5041101;28;20462;-77
2022/06/16 11:36:39;;;;;;;1.53;0.90;;;;;;;;;;5038441;28;20444;-76
2022/06/16 11:39:12;;;;;;;1.00;0.80;;;;;;;;;;5038129;28;20488;-77
2022/06/16 11:41:40;;;;;;;1.53;0.83;;;;;;;;;;5038552;28;20837;-78
2022/06/16 11:44:15;;;;;;;1.10;0.80;;;;;;;;;;5041783;28;20465;-77
2022/06/16 11:46:46;;;;;;;4.13;0.80;;;;;;;;;;5029040;28;20481;-77
2022/06/16 11:49:21;;;;;;;1.10;0.90;;;;;;;;;;5045490;28;20466;-78
2022/06/16 11:51:51;;;;;;;1.30;1.03;;;;;;;;;;5041675;28;20466;-77
2022/06/16 11:54:25;;;;;;;2.50;0.90;;;;;;;;;;5036121;28;20990;-78
2022/06/16 11:56:54;;;;;;;1.50;1.00;;;;;;;;;;5042845;28;20828;-78
2022/06/16 11:59:36;;;;;;;1.10;0.80;;;;;;;;;;5032268;28;20512;-77
2022/06/16 12:02:10;;;;;;;1.20;0.97;;;;;;;;;;5030214;28;21061;-78
2022/06/16 12:04:52;;;;;;;1.57;0.90;;;;;;;;;;5037341;28;20466;-77
2022/06/16 12:07:37;;;;;;;1.30;1.10;;;;;;;;;;5040889;28;20526;-78
2022/06/16 12:10:08;;;;;;;1.30;0.90;;;;;;;;;;5030196;28;20457;-78
2022/06/16 12:12:37;;;;;;;1.00;0.80;;;;;;;;;;5042139;28;20964;-77
2022/06/16 12:15:10;;;;;;;1.27;0.83;;;;;;;;;;5039103;28;20453;-78
2022/06/16 12:17:39;;;;;;;1.60;1.27;;;;;;;;;;5037569;28;20476;-78
2022/06/16 12:20:10;;;;;;;1.00;0.80;;;;;;;;;;5043630;28;21014;-78
2022/06/16 12:22:40;;;;;;;1.40;1.07;;;;;;;;;;5043434;28;20461;-80
2022/06/16 12:25:11;;;;;;;1.50;0.90;;;;;;;;;;5045600;28;20461;-78
2022/06/16 12:27:42;;;;;;;2.10;1.00;;;;;;;;;;5043998;28;21271;-78
2022/06/16 12:30:13;;;;;;;1.77;0.87;;;;;;;;;;5046434;28;20469;-78
2022/06/16 12:32:44;;;;;;;1.70;0.90;;;;;;;;;;5033185;28;20443;-78
2022/06/16 12:35:15;;;;;;;2.00;1.37;;;;;;;;;;5044909;28;20477;-77
2022/06/16 12:37:45;;;;;;;2.20;1.00;;;;;;;;;;5038531;28;20512;-77
2022/06/16 12:40:15;;;;;;;2.00;0.90;;;;;;;;;;5047853;28;20534;-78
2022/06/16 12:42:46;;;;;;;1.23;0.87;;;;;;;;;;5037877;28;20474;-78
2022/06/16 12:45:16;;;;;;;2.60;1.20;;;;;;;;;;5032535;28;20826;-78
2022/06/16 12:47:47;;;;;;;1.30;1.00;;;;;;;;;;5033285;28;20893;-78
2022/06/16 12:50:17;;;;;;;1.63;1.00;;;;;;;;;;5034801;28;20454;-80
2022/06/16 12:52:48;;;;;;;3.13;1.63;;;;;;;;;;5041940;28;20508;-78
2022/06/16 12:55:17;;;;;;;1.30;1.10;;;;;;;;;;5039428;28;20487;-79
2022/06/16 12:57:46;;;;;;;4.50;1.43;;;;;;;;;;5032630;28;20929;-79
2022/06/16 13:00:15;;;;;;;2.37;1.30;;;;;;;;;;5036982;28;20461;-79
2022/06/16 13:02:45;;;;;;;2.17;1.20;;;;;;;;;;5043357;28;20519;-78
2022/06/16 13:05:12;;;;;;;3.50;1.23;;;;;;;;;;5040911;28;20800;-79
2022/06/16 13:07:42;;;;;;;1.50;1.10;;;;;;;;;;5037570;28;20477;-78
2022/06/16 13:10:10;;;;;;;1.80;1.17;;;;;;;;;;5039996;28;20500;-78
2022/06/16 13:12:43;;;;;;;4.33;1.10;;;;;;;;;;5041696;28;20460;-78
2022/06/16 13:15:12;;;;;;;1.53;1.10;;;;;;;;;;5035120;28;20949;-78
2022/06/16 13:17:46;;;;;;;1.53;1.20;;;;;;;;;;5046705;28;20534;-79
2022/06/16 13:20:15;;;;;;;4.40;1.40;;;;;;;;;;5047549;28;20484;-80
2022/06/16 13:22:44;;;;;;;2.23;1.20;;;;;;;;;;5037971;28;20564;-79
2022/06/16 13:25:13;;;;;;;2.03;1.07;;;;;;;;;;5046669;28;20817;-79
2022/06/16 13:27:42;;;;;;;1.47;1.37;;;;;;;;;;5048080;28;20530;-79
2022/06/16 13:30:19;;;;;;;1.60;1.33;;;;;;;;;;5040600;28;20981;-78
2022/06/16 13:33:02;;;;;;;2.33;1.10;;;;;;;;;;5048370;28;20461;-78
2022/06/16 13:35:33;;;;;;;4.77;2.93;;;;;;;;;;5047560;28;20531;-78
2022/06/16 13:38:15;;;;;;;1.40;1.20;;;;;;;;;;5047150;28;20445;-78
2022/06/16 13:40:43;;;;;;;1.53;1.43;;;;;;;;;;5045473;28;20454;-78
2022/06/16 13:43:15;;;;;;;2.00;1.20;;;;;;;;;;5053962;28;20473;-78
2022/06/16 13:45:52;;;;;;;1.40;1.00;;;;;;;;;;5049450;28;20933;-78
2022/06/16 13:48:21;;;;;;;1.70;1.13;;;;;;;;;;5052316;28;20903;-79
2022/06/16 13:50:49;;;;;;;2.00;1.40;;;;;;;;;;5041831;28;20462;-78
2022/06/16 13:53:18;;;;;;;1.40;1.20;;;;;;;;;;5034028;28;20469;-78
2022/06/16 13:55:46;;;;;;;2.07;1.67;;;;;;;;;;5045926;28;20906;-79
2022/06/16 13:58:21;;;;;;;2.17;1.10;;;;;;;;;;5037897;28;20462;-79
2022/06/16 14:01:03;;;;;;;1.40;1.17;;;;;;;;;;5037127;28;20470;-78
2022/06/16 14:03:31;;;;;;;1.97;1.33;;;;;;;;;;5046680;28;21012;-78
2022/06/16 14:06:03;;;;;;;2.40;2.20;;;;;;;;;;5031346;28;20466;-78
2022/06/16 14:08:31;;;;;;;2.97;1.37;;;;;;;;;;5040131;28;20486;-78
2022/06/16 14:11:16;;;;;;;1.30;1.00;;;;;;;;;;5050896;28;20469;-78
2022/06/16 14:13:47;;;;;;;1.63;1.13;;;;;;;;;;5039582;28;20467;-79
2022/06/16 14:16:21;;;;;;;2.00;1.10;;;;;;;;;;5030656;28;20485;-78
2022/06/16 14:18:52;;;;;;;1.17;1.07;;;;;;;;;;5031474;28;20547;-78
2022/06/16 14:21:21;;;;;;;1.73;1.17;;;;;;;;;;5038503;28;20481;-78
2022/06/16 14:23:53;;;;;;;1.20;1.10;;;;;;;;;;5042390;28;20486;-78
2022/06/16 14:26:23;;;;;;;1.47;1.10;;;;;;;;;;5042793;28;20461;-79
2022/06/16 14:28:52;;;;;;;1.33;1.20;;;;;;;;;;5047407;28;20524;-78
2022/06/16 14:31:22;;;;;;;2.13;1.40;;;;;;;;;;5036849;28;20867;-79
2022/06/16 14:33:52;;;;;;;1.33;1.23;;;;;;;;;;5041158;28;20470;-79
2022/06/16 14:36:23;;;;;;;2.30;1.57;;;;;;;;;;5043746;28;20973;-79
2022/06/16 14:38:53;;;;;;;1.20;0.93;;;;;;;;;;5044180;28;20466;-78
2022/06/16 14:41:25;;;;;;;1.93;1.57;;;;;;;;;;5048696;28;20449;-78
2022/06/16 14:43:58;;;;;;;1.50;1.10;;;;;;;;;;5038069;28;20454;-78
2022/06/16 14:46:28;;;;;;;1.23;1.13;;;;;;;;;;5039110;28;20470;-79
2022/06/16 14:48:56;;;;;;;1.23;1.13;;;;;;;;;;5033888;28;20524;-78
2022/06/16 14:51:26;;;;;;;3.03;1.33;;;;;;;;;;5045997;28;20460;-78
2022/06/16 14:53:58;;;;;;;1.60;1.50;;;;;;;;;;5041660;28;20528;-79
2022/06/16 14:56:26;;;;;;;2.37;1.27;;;;;;;;;;5042806;28;20468;-78
2022/06/16 14:58:54;;;;;;;1.97;1.30;;;;;;;;;;5039040;28;20493;-78
2022/06/16 15:01:25;;;;;;;2.70;1.30;;;;;;;;;;5031450;28;20766;-78
2022/06/16 15:03:53;;;;;;;1.30;0.90;;;;;;;;;;5033537;28;20816;-78
2022/06/16 15:06:21;;;;;;;1.37;1.03;;;;;;;;;;5030119;28;20976;-79
2022/06/16 15:08:50;;;;;;;1.10;0.80;;;;;;;;;;5035913;28;20497;-78
2022/06/16 15:11:19;;;;;;;2.03;1.20;;;;;;;;;;5027189;28;20461;-78
2022/06/16 15:13:49;;;;;;;1.73;1.20;;;;;;;;;;5039653;28;20519;-79
2022/06/16 15:19:05;;;;;;;2.03;1.40;;;;;;;;;;5035298;28;20974;-78
2022/06/16 15:21:33;;;;;;;1.80;1.03;;;;;;;;;;5036724;28;20454;-78
2022/06/16 15:24:00;;;;;;;1.63;1.10;;;;;;;;;;5043510;28;20457;-78